createdAt,value
2018-09-02T00:00:00.511Z,69.3
2018-09-02T00:05:00.900Z,70.3
2018-09-02T00:10:00.831Z,70.4
2018-09-02T00:15:00.911Z,69.7
2018-09-02T00:20:00.698Z,69.3
2018-09-02T00:25:00.786Z,71.4
2018-09-02T00:30:01.042Z,70
2018-09-02T00:35:00.825Z,71
2018-09-02T00:40:00.554Z,72.5
2018-09-02T00:45:01.074Z,72.3
2018-09-02T00:50:00.736Z,72.7
2018-09-02T00:55:00.693Z,71.8
2018-09-02T01:00:00.592Z,71.2
2018-09-02T01:05:00.933Z,72.3
2018-09-02T01:10:00.764Z,71.8
2018-09-02T01:15:00.451Z,72.4
2018-09-02T01:20:00.758Z,72.7
2018-09-02T01:25:00.758Z,72.6
2018-09-02T01:30:00.756Z,73.7
2018-09-02T01:35:00.628Z,73
2018-09-02T01:40:00.379Z,74.4
2018-09-02T01:45:09.477Z,74.7
2018-09-02T01:50:00.859Z,75.5
2018-09-02T01:55:01.430Z,74.3
2018-09-02T02:00:00.686Z,75.4
2018-09-02T02:05:00.476Z,76.7
2018-09-02T02:10:00.559Z,76
2018-09-02T02:15:00.776Z,77.1
2018-09-02T02:20:00.450Z,76.8
2018-09-02T02:25:00.565Z,77.3
2018-09-02T02:30:00.388Z,76.3
2018-09-02T02:35:00.465Z,77.4
2018-09-02T02:40:00.391Z,76.9
2018-09-02T02:45:00.498Z,77
2018-09-02T02:50:00.255Z,79.3
2018-09-02T02:55:00.321Z,79
2018-09-02T03:00:00.559Z,80.4
2018-09-02T03:05:00.438Z,80.5
2018-09-02T03:10:00.355Z,79.9
2018-09-02T03:15:00.289Z,79.1
2018-09-02T03:20:00.446Z,79.9
2018-09-02T03:25:01.286Z,80.8
2018-09-02T03:30:00.583Z,81.2
2018-09-02T03:35:00.567Z,81
2018-09-02T03:40:00.535Z,80.8
2018-09-02T03:45:00.464Z,81.6
2018-09-02T03:50:00.457Z,79.8
2018-09-02T03:55:00.195Z,79.9
2018-09-02T04:00:00.465Z,80.7
2018-09-02T04:05:00.204Z,81.7
2018-09-02T04:10:00.233Z,81.5
2018-09-02T04:15:00.390Z,84.5
2018-09-02T04:20:00.028Z,83.7
2018-09-02T04:25:00.432Z,83.7
2018-09-02T04:30:00.229Z,84.3
2018-09-02T04:35:00.207Z,84.4
2018-09-02T04:40:00.193Z,85.3
2018-09-02T04:45:00.272Z,84.5
2018-09-02T04:50:00.282Z,84.8
2018-09-02T04:55:00.123Z,85.7
2018-09-02T05:00:00.020Z,88
2018-09-02T05:05:00.336Z,86
2018-09-02T05:10:00.344Z,87.6
2018-09-02T05:15:00.084Z,86.7
2018-09-02T05:20:00.157Z,86
2018-09-02T05:25:00.173Z,86.3
2018-09-02T05:29:59.922Z,89
2018-09-02T05:35:00.167Z,88.2
2018-09-02T05:39:59.923Z,88.3
2018-09-02T05:45:00.238Z,88.4
2018-09-02T05:50:00.166Z,88.4
2018-09-02T05:55:00.350Z,88
2018-09-02T06:00:00.239Z,88.1
2018-09-02T06:05:00.264Z,88.3
2018-09-02T06:10:00.372Z,88.5
2018-09-02T06:15:00.191Z,88.3
2018-09-02T06:19:59.888Z,86.2
2018-09-02T06:25:00.220Z,86.4
2018-09-02T06:29:59.994Z,86.8
2018-09-02T06:34:59.867Z,85.9
2018-09-02T06:40:00.020Z,84.9
2018-09-02T06:44:59.945Z,84
2018-09-02T06:49:59.943Z,84.2
2018-09-02T06:55:00.098Z,83.2
2018-09-02T07:00:00.164Z,82.9
2018-09-02T07:04:59.972Z,82.1
2018-09-02T07:09:59.819Z,81.9
2018-09-02T07:15:00.139Z,80.9
2018-09-02T07:19:59.947Z,81.4
2018-09-02T07:25:00.131Z,79.2
2018-09-02T07:30:00.121Z,79
2018-09-02T07:35:00.053Z,78.4
2018-09-02T07:40:00.128Z,79.4
2018-09-02T07:44:59.944Z,77.1
2018-09-02T07:49:59.927Z,76
2018-09-02T07:54:59.811Z,74.7
2018-09-02T07:59:59.828Z,74.6
2018-09-02T08:05:00.066Z,73.8
2018-09-02T08:09:59.940Z,71
2018-09-02T08:14:59.761Z,71.8
2018-09-02T08:19:59.855Z,68.6
2018-09-02T08:25:00.061Z,68.5
2018-09-02T08:29:59.703Z,67.7
2018-09-02T08:34:59.905Z,67.5
2018-09-02T08:39:59.996Z,64.2
2018-09-02T08:44:59.787Z,66.1
2018-09-02T08:49:59.934Z,64.6
2018-09-02T08:54:59.911Z,63.5
2018-09-02T09:00:00.027Z,62.9
2018-09-02T09:04:59.738Z,62.2
2018-09-02T09:09:59.824Z,62.4
2018-09-02T09:14:59.630Z,62
2018-09-02T09:19:59.780Z,61.6
2018-09-02T09:25:00.016Z,60.1
2018-09-02T09:29:59.656Z,58.6
2018-09-02T09:34:59.989Z,58
2018-09-02T09:39:59.694Z,58.1
2018-09-02T09:44:59.967Z,56.7
2018-09-02T09:49:59.551Z,56.7
2018-09-02T09:54:59.762Z,55.3
2018-09-02T09:59:59.571Z,56
2018-09-02T10:04:59.740Z,55.5
2018-09-02T10:09:59.865Z,55.6
2018-09-02T10:14:59.952Z,53.9
2018-09-02T10:19:59.876Z,52.4
2018-09-02T10:24:59.870Z,53.5
2018-09-02T10:29:59.845Z,51.8
2018-09-02T10:34:59.763Z,50.7
2018-09-02T10:39:59.863Z,50.8
2018-09-02T10:45:58.858Z,49.5
2018-09-02T10:49:59.892Z,48.8
2018-09-02T10:55:00.137Z,49.9
2018-09-02T10:59:59.952Z,51
2018-09-02T11:05:00.360Z,49.7
2018-09-02T11:10:00.028Z,51
2018-09-02T11:14:59.684Z,50
2018-09-02T11:19:59.847Z,51.3
2018-09-02T11:24:59.556Z,48.2
2018-09-02T11:29:59.483Z,48.4
2018-09-02T11:34:59.912Z,48.1
2018-09-02T11:39:59.879Z,49.6
2018-09-02T11:44:59.713Z,47.4
2018-09-02T11:49:59.750Z,45.9
2018-09-02T11:54:59.577Z,43.5
2018-09-02T11:59:59.402Z,46
2018-09-02T12:04:59.738Z,45.3
2018-09-02T12:09:59.398Z,44.8
2018-09-02T12:14:59.711Z,45.8
2018-09-02T12:19:59.547Z,43.9
2018-09-02T12:24:59.394Z,42.9
2018-09-02T12:29:59.547Z,42.4
2018-09-02T12:34:59.818Z,43
2018-09-02T12:39:59.501Z,40.4
2018-09-02T12:44:59.327Z,42.2
2018-09-02T12:49:59.590Z,42.7
2018-09-02T12:54:59.624Z,41.2
2018-09-02T12:59:59.999Z,40
2018-09-02T13:04:59.516Z,41.4
2018-09-02T13:09:59.438Z,39.7
2018-09-02T13:14:59.294Z,42
2018-09-02T13:19:59.473Z,43.9
2018-09-02T13:24:59.606Z,40.9
2018-09-02T13:29:59.507Z,38.7
2018-09-02T13:34:59.259Z,40.1
2018-09-02T13:39:59.432Z,39.7
2018-09-02T13:44:59.600Z,39.2
2018-09-02T13:49:59.460Z,39.4
2018-09-02T13:54:59.570Z,37.5
2018-09-02T13:59:59.304Z,36.4
2018-09-02T14:04:59.494Z,36.7
2018-09-02T14:09:59.331Z,38.6
2018-09-02T14:14:59.612Z,40.9
2018-09-02T14:19:59.359Z,40.4
2018-09-02T14:24:59.473Z,38.1
2018-09-02T14:29:59.207Z,38.8
2018-09-02T14:34:59.291Z,39.1
2018-09-02T14:39:59.408Z,38.8
2018-09-02T14:44:59.475Z,37.9
2018-09-02T14:49:59.429Z,37.8
2018-09-02T14:54:59.136Z,37.3
2018-09-02T14:59:59.184Z,37.1
2018-09-02T15:04:59.421Z,35.6
2018-09-02T15:09:59.419Z,35.3
2018-09-02T15:14:59.437Z,33.4
2018-09-02T15:19:59.269Z,34.3
2018-09-02T15:24:59.107Z,33.1
2018-09-02T15:29:59.315Z,32.4
2018-09-02T15:34:59.601Z,34.3
2018-09-02T15:39:59.366Z,35
2018-09-02T15:44:59.100Z,35.4
2018-09-02T15:49:59.057Z,35.1
2018-09-02T15:54:59.420Z,36.8
2018-09-02T15:59:59.115Z,37.1
2018-09-02T16:04:59.220Z,37.8
2018-09-02T16:09:59.427Z,38.2
2018-09-02T16:14:59.090Z,38.1
2018-09-02T16:19:59.420Z,38.9
2018-09-02T16:24:59.063Z,38.9
2018-09-02T16:29:59.076Z,38.8
2018-09-02T16:34:59.604Z,38.5
2018-09-02T16:39:59.079Z,38.8
2018-09-02T16:44:59.392Z,39.9
2018-09-02T16:49:59.355Z,40.9
2018-09-02T16:54:58.947Z,41.1
2018-09-02T16:59:59.193Z,42.2
2018-09-02T17:04:59.335Z,41.7
2018-09-02T17:09:59.120Z,41.8
2018-09-02T17:14:59.283Z,41.6
2018-09-02T17:19:58.989Z,42.6
2018-09-02T17:24:59.169Z,42.6
2018-09-02T17:29:58.931Z,44.5
2018-09-02T17:34:59.286Z,44.8
2018-09-02T17:39:59.206Z,44.8
2018-09-02T17:44:59.002Z,45.1
2018-09-02T17:49:58.993Z,45.5
2018-09-02T17:54:58.986Z,45.9
2018-09-02T17:59:59.219Z,46.5
2018-09-02T18:04:59.594Z,46.6
2018-09-02T18:09:59.129Z,47.6
2018-09-02T18:14:58.913Z,47.7
2018-09-02T18:19:59.215Z,47.7
2018-09-02T18:24:59.170Z,48.3
2018-09-02T18:29:59.100Z,47.6
2018-09-02T18:34:58.866Z,49.7
2018-09-02T18:39:59.154Z,49.8
2018-09-02T18:44:58.963Z,49.9
2018-09-02T18:49:59.268Z,50.6
2018-09-02T18:54:58.868Z,50.8
2018-09-02T18:59:58.815Z,50.5
2018-09-02T19:04:59.034Z,51.5
2018-09-02T19:09:59.057Z,50.8
2018-09-02T19:14:59.250Z,51.4
2018-09-02T19:19:59.176Z,52.7
2018-09-02T19:24:59.099Z,52.8
2018-09-02T19:29:59.007Z,53.1
2018-09-02T19:34:58.764Z,53.5
2018-09-02T19:39:59.061Z,53.2
2018-09-02T19:44:58.944Z,55.8
2018-09-02T19:49:59.120Z,55
2018-09-02T19:54:59.065Z,55
2018-09-02T19:59:59.137Z,55.1
2018-09-02T20:04:59.055Z,56.3
2018-09-02T20:09:59.036Z,58.2
2018-09-02T20:14:58.923Z,56.6
2018-09-02T20:19:58.900Z,58
2018-09-02T20:24:58.748Z,56.6
2018-09-02T20:29:58.833Z,57.5
2018-09-02T20:34:59.105Z,56.7
2018-09-02T20:39:58.794Z,57.4
2018-09-02T20:44:59.306Z,57.4
2018-09-02T20:49:59.660Z,57.4
2018-09-02T20:56:07.420Z,58.3
2018-09-02T21:00:59.571Z,58.6
2018-09-02T21:04:58.686Z,59.1
2018-09-02T21:09:58.887Z,59.7
2018-09-02T21:14:58.836Z,60.2
2018-09-02T21:19:58.604Z,60
2018-09-02T21:24:58.932Z,61.3
2018-09-02T21:29:58.788Z,61.2
2018-09-02T21:34:58.662Z,61.2
2018-09-02T21:39:58.581Z,62.3
2018-09-02T21:44:58.751Z,61.7
2018-09-02T21:49:58.865Z,62
2018-09-02T21:54:58.639Z,63.5
2018-09-02T21:59:58.739Z,62.6
2018-09-02T22:04:58.810Z,64
2018-09-02T22:09:58.728Z,63.8
2018-09-02T22:14:58.855Z,64.9
2018-09-02T22:19:58.697Z,65.4
2018-09-02T22:24:58.528Z,67
2018-09-02T22:29:58.701Z,67
2018-09-02T22:34:58.667Z,67.7
2018-09-02T22:39:58.619Z,67.8
2018-09-02T22:44:58.521Z,69.1
2018-09-02T22:49:58.433Z,69
2018-09-02T22:54:58.428Z,71.3
2018-09-02T22:59:58.668Z,71.2
2018-09-02T23:04:58.829Z,71.8
2018-09-02T23:09:58.653Z,70.5
2018-09-02T23:14:58.769Z,72
2018-09-02T23:19:58.549Z,73.3
2018-09-02T23:24:58.567Z,72.4
2018-09-02T23:29:58.575Z,74
2018-09-02T23:34:58.650Z,72.8
2018-09-02T23:39:58.627Z,73.6
2018-09-02T23:44:58.502Z,75
2018-09-02T23:49:58.636Z,75.1
2018-09-02T23:54:58.523Z,76.2
2018-09-02T23:59:58.455Z,75.3
